Time;durP1;ratioP1;P1;durP2;ratioP2;P2;SDS_P1;SDS_P2;PMS_P1;PMS_P2;Temp;Humidity;BMP_temperature;BMP_pressure;BME280_temperature;BME280_humidity;BME280_pressure;Samples;Min_cycle;Max_cycle;Signal;HPM_P1;HPM_P2
2023/01/26 00:00:40;;;;;;;116.57;71.57;;;2.50;99.90;;;;;;2106880;28;20019;-69
2023/01/26 00:01:42;;;;;;;112.53;68.90;;;2.50;99.90;;;;;;2107183;28;20407;-69
2023/01/26 00:02:42;;;;;;;110.43;69.88;;;2.50;99.90;;;;;;2105356;28;20116;-69
2023/01/26 00:03:43;;;;;;;119.60;74.25;;;2.50;99.90;;;;;;2106869;28;20490;-69
2023/01/26 00:04:44;;;;;;;118.43;72.35;;;2.50;99.90;;;;;;2106934;28;20070;-69
2023/01/26 00:05:45;;;;;;;111.45;69.95;;;2.50;99.90;;;;;;2105359;28;20510;-69
2023/01/26 00:06:45;;;;;;;116.32;72.60;;;2.50;99.90;;;;;;2101041;28;20751;-70
2023/01/26 00:07:46;;;;;;;108.55;69.85;;;2.50;99.90;;;;;;2104910;28;20078;-69
2023/01/26 00:08:49;;;;;;;114.53;73.13;;;2.50;99.90;;;;;;2106390;28;20020;-69
2023/01/26 00:09:49;;;;;;;113.20;70.38;;;2.50;99.90;;;;;;2104702;28;20072;-69
2023/01/26 00:10:50;;;;;;;113.90;72.07;;;2.50;99.90;;;;;;2104646;28;20035;-69
2023/01/26 00:11:50;;;;;;;120.28;71.03;;;2.50;99.90;;;;;;2107450;28;20094;-69
2023/01/26 00:12:51;;;;;;;114.45;70.93;;;2.50;99.90;;;;;;2108528;28;20024;-69
2023/01/26 00:13:53;;;;;;;117.82;73.65;;;2.50;99.90;;;;;;2105833;28;20483;-69
2023/01/26 00:14:54;;;;;;;115.60;73.15;;;2.50;99.90;;;;;;2106809;28;20700;-69
2023/01/26 00:15:54;;;;;;;119.85;75.78;;;2.40;99.90;;;;;;2105795;28;20024;-69
2023/01/26 00:16:55;;;;;;;124.72;75.40;;;2.40;99.90;;;;;;2106168;28;20028;-69
2023/01/26 00:17:55;;;;;;;128.10;75.25;;;2.40;99.90;;;;;;2106633;28;20024;-69
2023/01/26 00:18:56;;;;;;;118.97;73.75;;;2.40;99.90;;;;;;2108131;28;20062;-70
2023/01/26 00:19:57;;;;;;;120.70;70.32;;;2.40;99.90;;;;;;2107432;28;20024;-70
2023/01/26 00:21:00;;;;;;;128.45;75.97;;;2.40;99.90;;;;;;2105397;28;20023;-70
2023/01/26 00:22:00;;;;;;;117.75;72.45;;;2.40;99.90;;;;;;2108078;28;20733;-69
2023/01/26 00:23:01;;;;;;;121.03;73.35;;;2.30;99.90;;;;;;2107689;28;20024;-70
2023/01/26 00:24:03;;;;;;;119.32;72.43;;;2.30;99.90;;;;;;2108329;28;20049;-70
2023/01/26 00:25:04;;;;;;;121.82;73.53;;;2.30;99.90;;;;;;2107195;28;20016;-70
2023/01/26 00:26:09;;;;;;;112.40;70.93;;;2.30;99.90;;;;;;2107118;28;20027;-69
2023/01/26 00:27:10;;;;;;;116.50;70.25;;;2.30;99.90;;;;;;2106700;28;20024;-69
2023/01/26 00:28:10;;;;;;;124.72;74.10;;;2.30;99.90;;;;;;2106971;27;20031;-69
2023/01/26 00:29:11;;;;;;;120.75;72.35;;;2.30;99.90;;;;;;2106893;28;20027;-69
2023/01/26 00:30:12;;;;;;;120.93;73.35;;;2.40;99.90;;;;;;2105763;28;20047;-69
2023/01/26 00:31:15;;;;;;;115.53;72.45;;;2.40;99.90;;;;;;2106678;28;20507;-69
2023/01/26 00:32:15;;;;;;;110.50;69.25;;;2.40;99.90;;;;;;2107017;28;20392;-69
2023/01/26 00:33:16;;;;;;;118.60;73.70;;;2.40;99.90;;;;;;2105796;28;20121;-69
2023/01/26 00:34:16;;;;;;;113.85;67.80;;;2.40;99.90;;;;;;2105518;28;20035;-70
2023/01/26 00:35:17;;;;;;;112.35;68.30;;;2.40;99.90;;;;;;2105233;28;20473;-70
2023/01/26 00:36:18;;;;;;;108.65;67.82;;;2.40;99.90;;;;;;2107219;28;20457;-70
2023/01/26 00:37:18;;;;;;;118.72;72.00;;;2.40;99.90;;;;;;2108696;28;20027;-69
2023/01/26 00:38:19;;;;;;;119.55;71.90;;;2.40;99.90;;;;;;2107932;28;20530;-70
2023/01/26 00:39:19;;;;;;;123.90;73.63;;;2.50;99.90;;;;;;2108766;28;20670;-69
2023/01/26 00:40:20;;;;;;;103.85;63.60;;;2.40;99.90;;;;;;2105930;28;20024;-69
2023/01/26 00:42:39;;;;;;;103.60;65.55;;;2.50;99.90;;;;;;2106909;28;20020;-69
2023/01/26 00:43:40;;;;;;;115.93;69.68;;;2.50;99.90;;;;;;2107124;27;20024;-69
2023/01/26 00:44:41;;;;;;;116.18;72.32;;;2.50;99.90;;;;;;2104713;28;20018;-69
2023/01/26 00:45:43;;;;;;;117.72;70.85;;;2.50;99.90;;;;;;2106732;28;20049;-69
2023/01/26 00:46:43;;;;;;;111.97;70.65;;;2.50;99.90;;;;;;2107095;28;20120;-69
2023/01/26 00:47:44;;;;;;;107.07;67.05;;;2.50;99.90;;;;;;2106707;28;20104;-70
2023/01/26 00:48:44;;;;;;;118.68;73.35;;;2.50;99.90;;;;;;2106208;28;20023;-69
2023/01/26 00:49:45;;;;;;;119.35;71.25;;;2.50;99.90;;;;;;2107004;28;20026;-69
2023/01/26 00:50:45;;;;;;;116.88;70.95;;;2.50;99.90;;;;;;2109987;28;20012;-69
2023/01/26 00:51:46;;;;;;;122.70;73.30;;;2.50;99.90;;;;;;2110257;28;20173;-69
2023/01/26 00:52:46;;;;;;;103.38;64.22;;;2.50;99.90;;;;;;2106474;28;20382;-69
2023/01/26 00:53:47;;;;;;;110.85;67.15;;;2.50;99.90;;;;;;2107665;28;20127;-69
2023/01/26 00:54:47;;;;;;;116.82;68.95;;;2.50;99.90;;;;;;2109069;28;20015;-69
2023/01/26 00:55:48;;;;;;;118.63;70.82;;;2.50;99.90;;;;;;2104501;28;20834;-69
2023/01/26 00:56:48;;;;;;;113.55;70.03;;;2.50;99.90;;;;;;2106233;28;20811;-70
2023/01/26 00:57:49;;;;;;;109.80;65.45;;;2.50;99.90;;;;;;2105533;28;20506;-69
2023/01/26 00:58:49;;;;;;;117.03;68.60;;;2.50;99.90;;;;;;2107852;28;20024;-69
2023/01/26 00:59:50;;;;;;;116.35;66.88;;;2.50;99.90;;;;;;2107342;28;20042;-69
2023/01/26 01:00:52;;;;;;;113.35;69.88;;;2.50;99.90;;;;;;2108445;28;20028;-69
2023/01/26 01:01:53;;;;;;;111.20;69.30;;;2.50;99.90;;;;;;2107108;27;20047;-70
2023/01/26 01:02:55;;;;;;;106.53;66.47;;;2.50;99.90;;;;;;2107561;28;20107;-69
2023/01/26 01:03:55;;;;;;;113.70;69.13;;;2.50;99.90;;;;;;2106960;28;20016;-69
2023/01/26 01:04:57;;;;;;;120.88;69.88;;;2.50;99.90;;;;;;2107042;28;20031;-70
2023/01/26 01:05:57;;;;;;;114.75;70.20;;;2.50;99.90;;;;;;2106017;28;20097;-70
2023/01/26 01:06:58;;;;;;;116.13;69.05;;;2.50;99.90;;;;;;2106050;28;20081;-69
2023/01/26 01:07:58;;;;;;;113.03;69.15;;;2.50;99.90;;;;;;2107368;28;20048;-70
2023/01/26 01:08:59;;;;;;;112.25;68.10;;;2.50;99.90;;;;;;2109629;28;20057;-70
2023/01/26 01:09:59;;;;;;;117.68;68.78;;;2.50;99.90;;;;;;2106198;28;20543;-70
2023/01/26 01:11:08;;;;;;;109.43;67.72;;;2.50;99.90;;;;;;2105883;28;20097;-70
2023/01/26 01:12:08;;;;;;;113.25;68.32;;;2.50;99.90;;;;;;2104907;28;20031;-69
2023/01/26 01:13:09;;;;;;;113.05;68.82;;;2.50;99.90;;;;;;2107842;28;20030;-69
2023/01/26 01:14:09;;;;;;;115.63;68.60;;;2.50;99.90;;;;;;2107364;28;20095;-70
2023/01/26 01:15:10;;;;;;;106.75;63.45;;;2.50;99.90;;;;;;2108251;28;20028;-70
2023/01/26 01:16:14;;;;;;;98.18;61.38;;;2.50;99.90;;;;;;2107851;28;20063;-69
2023/01/26 01:17:14;;;;;;;111.03;66.85;;;2.50;99.90;;;;;;2106829;28;20027;-70
2023/01/26 01:18:15;;;;;;;103.30;63.75;;;2.50;99.90;;;;;;2106382;28;20058;-69
2023/01/26 01:19:17;;;;;;;108.35;65.68;;;2.50;99.90;;;;;;2107303;28;20023;-69
2023/01/26 01:20:17;;;;;;;111.88;67.78;;;2.50;99.90;;;;;;2106181;28;20024;-69
2023/01/26 01:21:18;;;;;;;104.32;63.95;;;2.50;99.90;;;;;;2107296;28;20028;-69
2023/01/26 01:22:19;;;;;;;108.55;64.25;;;2.50;99.90;;;;;;2105790;28;20078;-70
2023/01/26 01:23:19;;;;;;;104.90;65.82;;;2.50;99.90;;;;;;2105476;28;20077;-71
2023/01/26 01:24:20;;;;;;;110.50;66.18;;;2.50;99.90;;;;;;2106979;28;20969;-69
2023/01/26 01:25:20;;;;;;;109.63;64.82;;;2.50;99.90;;;;;;2106398;28;20099;-69
2023/01/26 01:26:21;;;;;;;107.63;63.30;;;2.50;99.90;;;;;;2107836;28;20051;-69
2023/01/26 01:27:21;;;;;;;104.47;63.72;;;2.50;99.90;;;;;;2106941;28;20368;-69
2023/01/26 01:28:22;;;;;;;104.45;63.80;;;2.50;99.90;;;;;;2108367;28;20062;-69
2023/01/26 01:29:22;;;;;;;111.28;64.47;;;2.50;99.90;;;;;;2110189;28;20027;-69
2023/01/26 01:30:23;;;;;;;103.88;65.30;;;2.50;99.90;;;;;;2109402;28;20027;-69
2023/01/26 01:31:24;;;;;;;109.68;63.47;;;2.50;99.90;;;;;;2105398;28;20035;-69
2023/01/26 01:32:25;;;;;;;107.57;65.57;;;2.50;99.90;;;;;;2106421;28;20028;-69
2023/01/26 01:33:25;;;;;;;100.88;61.30;;;2.50;99.90;;;;;;2104951;28;20116;-69
2023/01/26 01:34:26;;;;;;;109.95;64.68;;;2.50;99.90;;;;;;2106041;28;20019;-69
2023/01/26 01:35:28;;;;;;;105.10;63.90;;;2.50;99.90;;;;;;2107760;28;20032;-69
2023/01/26 01:36:30;;;;;;;101.15;61.97;;;2.50;99.90;;;;;;2108443;28;20455;-69
2023/01/26 01:37:32;;;;;;;105.07;63.22;;;2.50;99.90;;;;;;2106082;28;20094;-69
2023/01/26 01:38:33;;;;;;;102.35;64.22;;;2.50;99.90;;;;;;2104725;28;20502;-70
2023/01/26 01:39:34;;;;;;;112.80;67.50;;;2.50;99.90;;;;;;2105394;28;20039;-69
2023/01/26 01:40:34;;;;;;;102.97;61.55;;;2.50;99.90;;;;;;2107015;28;20031;-69
2023/01/26 01:41:35;;;;;;;109.32;66.07;;;2.50;99.90;;;;;;2107363;28;20106;-70
2023/01/26 01:42:35;;;;;;;108.28;63.05;;;2.50;99.90;;;;;;2104620;28;20031;-69
2023/01/26 01:43:37;;;;;;;108.22;65.40;;;2.50;99.90;;;;;;2109617;28;20024;-69
2023/01/26 01:44:38;;;;;;;105.38;62.00;;;2.60;99.90;;;;;;2107979;28;20515;-69
2023/01/26 01:45:45;;;;;;;112.72;64.35;;;2.60;99.90;;;;;;2107704;28;20043;-69
2023/01/26 01:47:00;;;;;;;100.80;60.40;;;2.60;99.90;;;;;;2107608;28;20500;-69
2023/01/26 01:48:03;;;;;;;99.20;61.50;;;2.50;99.90;;;;;;2108287;28;20357;-69
2023/01/26 01:49:14;;;;;;;108.45;62.97;;;2.60;99.90;;;;;;2105478;28;20039;-69
2023/01/26 01:50:15;;;;;;;109.35;62.80;;;2.50;99.90;;;;;;2103601;28;20024;-69
2023/01/26 01:51:26;;;;;;;103.88;61.72;;;2.50;99.90;;;;;;2106903;28;20085;-69
2023/01/26 01:52:30;;;;;;;94.97;58.92;;;2.50;99.90;;;;;;2105208;28;20028;-69
2023/01/26 01:53:36;;;;;;;105.32;62.88;;;2.50;99.90;;;;;;2108069;28;20039;-69
2023/01/26 01:54:45;;;;;;;108.55;64.35;;;2.50;99.90;;;;;;2108118;28;20037;-69
2023/01/26 01:55:46;;;;;;;107.40;62.70;;;2.50;99.90;;;;;;2108139;28;20099;-69
2023/01/26 01:56:52;;;;;;;100.18;59.85;;;2.50;99.90;;;;;;2109078;28;20042;-69
2023/01/26 01:57:57;;;;;;;101.20;60.90;;;2.60;99.90;;;;;;2108012;28;20604;-69
2023/01/26 01:58:59;;;;;;;107.07;61.55;;;2.50;99.90;;;;;;2108624;28;20720;-69
2023/01/26 02:00:07;;;;;;;103.50;61.03;;;2.50;99.90;;;;;;2107817;28;20066;-69
2023/01/26 02:01:08;;;;;;;100.93;59.55;;;2.60;99.90;;;;;;2108058;28;20099;-69
2023/01/26 02:02:10;;;;;;;105.18;61.75;;;2.60;99.90;;;;;;2107916;28;20032;-70
2023/01/26 02:03:10;;;;;;;99.53;58.55;;;2.60;99.90;;;;;;2107032;28;20023;-69
2023/01/26 02:04:11;;;;;;;103.15;60.38;;;2.60;99.90;;;;;;2112762;28;20102;-69
2023/01/26 02:05:25;;;;;;;106.03;60.72;;;2.60;99.90;;;;;;2112132;28;20055;-69
2023/01/26 02:06:32;;;;;;;105.72;60.35;;;2.60;99.90;;;;;;2109147;28;20414;-69
2023/01/26 02:07:32;;;;;;;111.32;62.95;;;2.60;99.90;;;;;;2107674;27;20024;-69
2023/01/26 02:08:41;;;;;;;109.72;61.25;;;2.60;99.90;;;;;;2108019;28;20024;-69
2023/01/26 02:11:12;;;;;;;99.30;57.17;;;2.60;99.90;;;;;;2107302;28;20095;-69
2023/01/26 02:12:15;;;;;;;98.28;56.97;;;2.50;99.90;;;;;;2107127;28;20043;-70
2023/01/26 02:13:17;;;;;;;102.35;59.00;;;2.50;99.90;;;;;;2107379;28;20463;-70
2023/01/26 02:14:18;;;;;;;95.55;56.65;;;2.50;99.90;;;;;;2107949;28;20482;-70
2023/01/26 02:15:18;;;;;;;99.70;58.90;;;2.50;99.90;;;;;;2107701;28;20031;-69
2023/01/26 02:16:19;;;;;;;104.00;59.78;;;2.50;99.90;;;;;;2108612;28;20028;-69
2023/01/26 02:17:20;;;;;;;98.93;55.83;;;2.50;99.90;;;;;;2109668;28;20190;-69
2023/01/26 02:18:21;;;;;;;100.55;57.08;;;2.50;99.90;;;;;;2110815;28;20028;-69
2023/01/26 02:19:34;;;;;;;97.15;56.97;;;2.50;99.90;;;;;;2108092;28;20035;-69
2023/01/26 02:20:57;;;;;;;100.07;58.05;;;2.50;99.90;;;;;;2109601;28;20072;-69
2023/01/26 02:22:06;;;;;;;97.88;55.60;;;2.50;99.90;;;;;;2107642;28;20020;-69
2023/01/26 02:23:25;;;;;;;97.63;56.92;;;2.50;99.90;;;;;;2107323;28;20031;-69
2023/01/26 02:24:32;;;;;;;96.10;55.80;;;2.50;99.90;;;;;;2108127;28;20020;-69
2023/01/26 02:25:47;;;;;;;95.68;55.88;;;2.50;99.90;;;;;;2108330;28;20110;-69
2023/01/26 02:26:48;;;;;;;103.60;56.47;;;2.50;99.90;;;;;;2108512;28;20201;-69
2023/01/26 02:27:48;;;;;;;100.53;58.13;;;2.50;99.90;;;;;;2109122;28;20019;-69
2023/01/26 02:28:49;;;;;;;106.18;61.28;;;2.50;99.90;;;;;;2107372;28;20020;-69
2023/01/26 02:29:50;;;;;;;103.07;59.80;;;2.50;99.90;;;;;;2108269;28;20032;-69
2023/01/26 02:30:53;;;;;;;109.00;60.55;;;2.50;99.90;;;;;;2109338;28;20038;-69
2023/01/26 02:31:54;;;;;;;97.05;56.55;;;2.50;99.90;;;;;;2107513;27;20028;-70
2023/01/26 02:32:55;;;;;;;108.82;61.88;;;2.50;99.90;;;;;;2108806;28;20106;-69
2023/01/26 02:33:55;;;;;;;102.40;58.70;;;2.50;99.90;;;;;;2107693;28;20031;-69
2023/01/26 02:34:56;;;;;;;112.18;63.60;;;2.50;99.90;;;;;;2108414;28;20028;-69
2023/01/26 02:35:58;;;;;;;101.50;57.85;;;2.50;99.90;;;;;;2109532;28;20055;-69
2023/01/26 02:36:59;;;;;;;106.50;60.05;;;2.50;99.90;;;;;;2107705;28;20034;-69
2023/01/26 02:38:00;;;;;;;107.82;61.47;;;2.50;99.90;;;;;;2107628;28;20043;-69
2023/01/26 02:39:28;;;;;;;105.68;60.03;;;2.50;99.90;;;;;;2108460;28;20107;-69
2023/01/26 02:40:39;;;;;;;109.50;61.28;;;2.50;99.90;;;;;;2109176;28;20031;-69
2023/01/26 02:43:01;;;;;;;104.80;59.00;;;2.50;99.90;;;;;;2109198;28;20023;-69
2023/01/26 02:44:03;;;;;;;103.85;61.25;;;2.50;99.90;;;;;;2107904;27;20023;-69
2023/01/26 02:45:05;;;;;;;101.40;57.72;;;2.50;99.90;;;;;;2108006;28;20114;-69
2023/01/26 02:46:06;;;;;;;114.30;62.58;;;2.50;99.90;;;;;;2109099;28;20034;-69
2023/01/26 02:47:15;;;;;;;99.68;57.45;;;2.50;99.90;;;;;;2109736;28;20020;-69
2023/01/26 02:49:45;;;;;;;103.40;59.63;;;2.60;99.90;;;;;;2108878;28;20023;-69
2023/01/26 02:49:49;;;;;;;105.30;60.45;;;2.60;99.90;;;;;;2107905;28;20020;-69
2023/01/26 02:50:50;;;;;;;111.80;62.65;;;2.60;99.90;;;;;;2109371;28;20020;-70
2023/01/26 02:51:50;;;;;;;107.18;60.45;;;2.50;99.90;;;;;;2106821;28;20047;-69
2023/01/26 02:52:51;;;;;;;101.70;58.97;;;2.60;99.90;;;;;;2108698;28;20048;-69
2023/01/26 02:53:51;;;;;;;107.57;61.17;;;2.60;99.90;;;;;;2109056;28;20131;-69
2023/01/26 02:56:12;;;;;;;105.55;59.67;;;2.60;99.90;;;;;;2107389;28;20115;-69
2023/01/26 02:57:13;;;;;;;111.47;61.63;;;2.50;99.90;;;;;;2108069;28;20599;-69
2023/01/26 02:58:14;;;;;;;106.43;59.25;;;2.50;99.90;;;;;;2106472;28;20028;-69
2023/01/26 02:59:14;;;;;;;109.22;61.28;;;2.50;99.90;;;;;;2107141;28;20466;-69
2023/01/26 03:00:21;;;;;;;105.82;59.28;;;2.50;99.90;;;;;;2107537;27;20027;-69
2023/01/26 03:01:21;;;;;;;107.00;61.05;;;2.60;99.90;;;;;;2107225;28;20032;-69
2023/01/26 03:02:22;;;;;;;101.43;56.92;;;2.50;99.90;;;;;;2108148;28;20061;-69
2023/01/26 03:03:40;;;;;;;102.38;57.50;;;2.50;99.90;;;;;;2110019;28;20081;-69
2023/01/26 03:04:41;;;;;;;109.55;61.60;;;2.50;99.90;;;;;;2110282;28;20028;-69
2023/01/26 03:05:42;;;;;;;107.32;59.72;;;2.60;99.90;;;;;;2108232;28;20150;-69
2023/01/26 03:06:42;;;;;;;107.45;59.05;;;2.60;99.90;;;;;;2107730;28;20027;-70
2023/01/26 03:07:43;;;;;;;115.13;63.38;;;2.60;99.90;;;;;;2107532;28;20024;-69
2023/01/26 03:08:43;;;;;;;113.55;62.13;;;2.60;99.90;;;;;;2106836;28;20035;-69
2023/01/26 03:09:44;;;;;;;115.03;63.65;;;2.60;99.90;;;;;;2107785;28;20039;-69
2023/01/26 03:10:46;;;;;;;116.05;64.10;;;2.60;99.90;;;;;;2107088;28;20149;-69
2023/01/26 03:11:46;;;;;;;102.97;57.72;;;2.60;99.90;;;;;;2107671;28;20073;-69
2023/01/26 03:12:47;;;;;;;115.78;63.55;;;2.60;99.90;;;;;;2107642;28;20036;-69
2023/01/26 03:13:47;;;;;;;115.43;62.30;;;2.60;99.90;;;;;;2109937;28;20027;-69
2023/01/26 03:15:33;;;;;;;110.18;60.08;;;2.60;99.90;;;;;;2106532;28;20054;-69
2023/01/26 03:16:10;;;;;;;112.50;62.70;;;2.60;99.90;;;;;;2107845;28;20031;-69
2023/01/26 03:17:11;;;;;;;101.82;57.95;;;2.60;99.90;;;;;;2109420;28;20424;-69
2023/01/26 03:27:25;;;;;;;107.00;60.25;;;2.60;99.90;;;;;;2107197;27;20104;-69
2023/01/26 03:27:35;;;;;;;105.35;60.00;;;2.60;99.90;;;;;;2107339;28;20032;-70
2023/01/26 03:28:36;;;;;;;115.88;64.65;;;2.60;99.90;;;;;;2108080;28;20111;-69
2023/01/26 03:29:36;;;;;;;120.05;66.60;;;2.60;99.90;;;;;;2109642;28;20031;-69
2023/01/26 03:30:37;;;;;;;126.93;67.10;;;2.60;99.90;;;;;;2106761;28;20020;-69
2023/01/26 03:31:37;;;;;;;119.03;65.28;;;2.60;99.90;;;;;;2108028;28;20027;-69
2023/01/26 03:32:38;;;;;;;124.50;66.97;;;2.60;99.90;;;;;;2105373;28;20157;-69
2023/01/26 03:33:39;;;;;;;124.82;68.93;;;2.60;99.90;;;;;;2108223;28;20430;-69
2023/01/26 03:34:39;;;;;;;121.47;67.03;;;2.60;99.90;;;;;;2110377;28;20035;-69
2023/01/26 03:35:40;;;;;;;128.00;69.70;;;2.60;99.90;;;;;;2107208;28;20066;-71
2023/01/26 03:36:40;;;;;;;112.25;63.35;;;2.60;99.90;;;;;;2106771;28;20028;-69
2023/01/26 03:37:45;;;;;;;125.32;68.57;;;2.60;99.90;;;;;;2107260;27;20032;-69
2023/01/26 03:38:46;;;;;;;124.40;68.78;;;2.60;99.90;;;;;;2109343;28;20107;-69
2023/01/26 03:56:58;;;;;;;110.63;61.92;;;2.60;99.90;;;;;;2106954;28;20024;-69
2023/01/26 03:57:59;;;;;;;140.27;76.32;;;2.60;99.90;;;;;;2107894;27;20028;-69
2023/01/26 03:59:08;;;;;;;134.80;75.15;;;2.60;99.90;;;;;;2107881;28;20042;-69
2023/01/26 04:00:10;;;;;;;142.13;77.10;;;2.60;99.90;;;;;;2107437;28;20019;-69
2023/01/26 04:01:18;;;;;;;137.02;71.80;;;2.60;99.90;;;;;;2108959;28;20082;-69
2023/01/26 04:08:55;;;;;;;128.68;71.00;;;2.60;99.90;;;;;;2107275;28;20027;-69
2023/01/26 04:09:55;;;;;;;146.38;78.40;;;2.50;99.90;;;;;;2108221;28;20032;-70
2023/01/26 04:10:56;;;;;;;144.40;74.13;;;2.50;99.90;;;;;;2109611;28;20058;-70
2023/01/26 04:11:57;;;;;;;150.52;78.30;;;2.50;99.90;;;;;;2110966;28;20042;-69
2023/01/26 04:22:13;;;;;;;152.52;80.75;;;2.50;99.90;;;;;;2108301;28;20012;-69
2023/01/26 04:23:20;;;;;;;155.07;81.32;;;2.50;99.90;;;;;;2107229;28;20486;-69
2023/01/26 04:24:21;;;;;;;136.63;75.22;;;2.50;99.90;;;;;;2106775;28;20030;-69
2023/01/26 04:25:22;;;;;;;149.05;79.65;;;2.60;99.90;;;;;;2106544;28;20027;-69
2023/01/26 04:26:24;;;;;;;138.63;74.75;;;2.50;99.90;;;;;;2108423;28;20032;-69
2023/01/26 04:27:24;;;;;;;126.30;72.10;;;2.60;99.90;;;;;;2107370;28;20031;-69
2023/01/26 04:28:25;;;;;;;142.07;76.25;;;2.50;99.90;;;;;;2109490;28;20063;-69
2023/01/26 04:29:25;;;;;;;155.30;81.10;;;2.60;99.90;;;;;;2108497;27;20026;-69
2023/01/26 04:30:26;;;;;;;145.20;77.95;;;2.60;99.90;;;;;;2107050;28;20020;-69
2023/01/26 04:31:26;;;;;;;147.02;77.90;;;2.60;99.90;;;;;;2108698;28;20035;-69
2023/01/26 04:32:27;;;;;;;149.20;78.55;;;2.60;99.90;;;;;;2108129;28;20024;-69
2023/01/26 04:33:27;;;;;;;154.65;78.32;;;2.60;99.90;;;;;;2108210;28;20046;-71
2023/01/26 04:34:28;;;;;;;145.70;78.30;;;2.60;99.90;;;;;;2107499;28;20034;-71
2023/01/26 04:35:29;;;;;;;132.25;71.85;;;2.50;99.90;;;;;;2105658;28;20138;-70
2023/01/26 04:36:30;;;;;;;130.07;70.90;;;2.50;99.90;;;;;;2108291;28;20026;-71
2023/01/26 04:37:31;;;;;;;144.88;77.97;;;2.60;99.90;;;;;;2106631;28;20031;-71
2023/01/26 04:38:31;;;;;;;137.75;74.20;;;2.60;99.90;;;;;;2106295;28;20123;-71
2023/01/26 04:39:32;;;;;;;142.05;76.25;;;2.60;99.90;;;;;;2105543;28;20034;-71
2023/01/26 04:40:32;;;;;;;135.65;71.85;;;2.60;99.90;;;;;;2107326;28;20039;-71
2023/01/26 04:41:33;;;;;;;146.80;74.03;;;2.60;99.90;;;;;;2105587;28;20024;-71
2023/01/26 04:42:34;;;;;;;145.15;76.75;;;2.60;99.90;;;;;;2106531;28;20127;-69
2023/01/26 04:43:34;;;;;;;137.52;73.75;;;2.60;99.90;;;;;;2107509;28;20091;-71
2023/01/26 04:44:35;;;;;;;138.45;74.43;;;2.60;99.90;;;;;;2108361;28;20107;-71
2023/01/26 04:45:35;;;;;;;138.10;73.25;;;2.60;99.90;;;;;;2107030;28;20100;-70
2023/01/26 04:46:36;;;;;;;137.15;72.65;;;2.60;99.90;;;;;;2107995;28;20025;-70
2023/01/26 04:47:36;;;;;;;140.52;75.07;;;2.60;99.90;;;;;;2104895;28;20028;-69
2023/01/26 04:48:37;;;;;;;144.52;76.40;;;2.60;99.90;;;;;;2106944;28;20106;-71
2023/01/26 04:49:37;;;;;;;142.15;76.72;;;2.60;99.90;;;;;;2107266;28;20463;-71
2023/01/26 04:50:38;;;;;;;131.52;68.75;;;2.60;99.90;;;;;;2115320;27;20023;-70
2023/01/26 04:51:39;;;;;;;139.60;73.00;;;2.60;99.90;;;;;;2114094;27;20088;-69
2023/01/26 04:52:39;;;;;;;128.57;70.93;;;2.70;99.90;;;;;;2107634;28;20027;-70
2023/01/26 04:53:40;;;;;;;129.98;69.07;;;2.70;99.90;;;;;;2106420;27;20027;-71
2023/01/26 04:54:41;;;;;;;124.10;68.18;;;2.70;99.90;;;;;;2107694;28;20024;-71
2023/01/26 04:55:41;;;;;;;125.10;64.18;;;2.70;99.90;;;;;;2106633;28;20093;-71
2023/01/26 04:56:42;;;;;;;128.57;68.03;;;2.70;99.90;;;;;;2107047;28;20638;-71
2023/01/26 04:57:42;;;;;;;121.07;66.88;;;2.70;99.90;;;;;;2104274;28;20491;-71
2023/01/26 04:58:43;;;;;;;121.35;67.15;;;2.70;99.90;;;;;;2108614;28;20485;-71
2023/01/26 04:59:43;;;;;;;130.70;70.85;;;2.70;99.90;;;;;;2106832;28;20390;-71
2023/01/26 05:00:48;;;;;;;128.43;69.63;;;2.70;99.90;;;;;;2108740;28;20032;-71
2023/01/26 05:01:49;;;;;;;126.25;68.13;;;2.70;99.90;;;;;;2106607;28;20450;-71
2023/01/26 05:02:49;;;;;;;136.80;70.85;;;2.70;99.90;;;;;;2106109;28;20032;-71
2023/01/26 05:03:50;;;;;;;127.38;67.63;;;2.70;99.90;;;;;;2107485;28;21019;-71
2023/01/26 05:04:51;;;;;;;123.38;70.00;;;2.70;99.90;;;;;;2106888;28;20394;-71
2023/01/26 05:05:53;;;;;;;119.53;64.68;;;2.70;99.90;;;;;;2106933;28;20081;-71
2023/01/26 05:06:54;;;;;;;120.57;68.25;;;2.80;99.90;;;;;;2106299;28;20012;-71
2023/01/26 05:07:54;;;;;;;122.25;66.18;;;2.80;99.90;;;;;;2106180;28;20028;-71
2023/01/26 05:08:55;;;;;;;112.50;63.97;;;2.80;99.90;;;;;;2107972;28;20035;-70
2023/01/26 05:09:56;;;;;;;113.78;63.47;;;2.80;99.90;;;;;;2106386;28;20032;-71
2023/01/26 05:10:57;;;;;;;122.90;65.07;;;2.80;99.90;;;;;;2106853;28;20113;-69
2023/01/26 05:12:32;;;;;;;118.13;64.47;;;2.80;99.90;;;;;;2106226;28;20031;-71
2023/01/26 05:13:18;;;;;;;120.40;64.45;;;2.80;99.90;;;;;;2106870;28;20434;-70
2023/01/26 05:14:18;;;;;;;117.10;65.60;;;2.80;99.90;;;;;;2105878;27;20070;-70
2023/01/26 05:15:19;;;;;;;115.05;65.43;;;2.80;99.90;;;;;;2107223;28;20046;-71
2023/01/26 05:16:20;;;;;;;116.38;63.10;;;2.80;99.90;;;;;;2106488;28;20372;-71
2023/01/26 05:17:20;;;;;;;112.30;62.35;;;2.80;99.90;;;;;;2105877;28;20023;-71
2023/01/26 05:18:21;;;;;;;113.28;63.20;;;2.80;99.90;;;;;;2107293;28;20420;-71
2023/01/26 05:19:21;;;;;;;113.40;63.13;;;2.80;99.90;;;;;;2107286;28;20043;-70
2023/01/26 05:20:22;;;;;;;110.22;61.55;;;2.80;99.90;;;;;;2104735;28;20025;-70
2023/01/26 05:21:23;;;;;;;110.95;61.65;;;2.80;99.90;;;;;;2106559;28;20107;-71
2023/01/26 05:22:24;;;;;;;109.80;58.33;;;2.80;99.90;;;;;;2106828;28;20020;-70
2023/01/26 05:23:25;;;;;;;109.18;61.80;;;2.80;99.90;;;;;;2106886;28;20072;-70
2023/01/26 05:24:25;;;;;;;106.45;60.55;;;2.80;99.90;;;;;;2108255;28;20038;-70
2023/01/26 05:25:26;;;;;;;108.47;61.08;;;2.70;99.90;;;;;;2106374;28;20047;-70
2023/01/26 05:26:27;;;;;;;110.18;61.53;;;2.70;99.90;;;;;;2105409;28;20480;-69
2023/01/26 05:27:27;;;;;;;103.80;59.70;;;2.80;99.90;;;;;;2107176;28;20402;-70
2023/01/26 05:28:30;;;;;;;110.65;60.92;;;2.70;99.90;;;;;;2106336;27;20020;-71
2023/01/26 05:29:31;;;;;;;106.55;61.95;;;2.80;99.90;;;;;;2107768;28;20070;-70
2023/01/26 05:30:31;;;;;;;112.28;63.75;;;2.70;99.90;;;;;;2108342;28;20027;-71
2023/01/26 05:31:32;;;;;;;102.57;59.05;;;2.80;99.90;;;;;;2107856;28;20028;-71
2023/01/26 05:32:32;;;;;;;117.13;64.28;;;2.80;99.90;;;;;;2107691;28;20144;-70
2023/01/26 05:33:33;;;;;;;102.50;58.25;;;2.80;99.90;;;;;;2107464;28;20024;-70
2023/01/26 05:34:33;;;;;;;113.68;64.10;;;2.80;99.90;;;;;;2110067;28;20441;-70
2023/01/26 05:35:34;;;;;;;107.55;61.92;;;2.80;99.90;;;;;;2107117;27;20054;-71
2023/01/26 05:36:35;;;;;;;102.93;58.17;;;2.80;99.90;;;;;;2108888;28;20020;-70
2023/01/26 05:37:36;;;;;;;95.60;55.75;;;2.80;99.90;;;;;;2108693;28;20075;-70
2023/01/26 05:38:36;;;;;;;99.43;56.17;;;2.80;99.90;;;;;;2107665;28;20028;-70
2023/01/26 05:39:37;;;;;;;101.78;56.70;;;2.80;99.90;;;;;;2107716;28;20019;-71
2023/01/26 05:40:37;;;;;;;106.15;58.35;;;2.80;99.90;;;;;;2107509;28;20387;-70
2023/01/26 05:41:38;;;;;;;97.63;55.78;;;2.80;99.90;;;;;;2109862;28;20020;-70
2023/01/26 05:42:38;;;;;;;98.43;55.70;;;2.80;99.90;;;;;;2110175;27;20023;-70
2023/01/26 05:43:39;;;;;;;96.40;55.35;;;2.80;99.90;;;;;;2110137;28;20031;-70
2023/01/26 05:44:39;;;;;;;97.72;56.25;;;2.80;99.90;;;;;;2107387;28;20508;-70
2023/01/26 05:45:40;;;;;;;101.75;57.22;;;2.80;99.90;;;;;;2108483;28;20032;-70
2023/01/26 05:46:41;;;;;;;103.30;57.15;;;2.80;99.90;;;;;;2108675;28;20016;-70
2023/01/26 05:47:43;;;;;;;103.00;57.25;;;2.80;99.90;;;;;;2108431;28;20028;-70
2023/01/26 05:48:44;;;;;;;99.35;56.22;;;2.80;99.90;;;;;;2108162;28;20027;-70
2023/01/26 05:49:44;;;;;;;100.10;57.85;;;2.80;99.90;;;;;;2107959;27;20131;-70
2023/01/26 05:50:45;;;;;;;104.45;59.15;;;2.80;99.90;;;;;;2108299;28;20636;-70
2023/01/26 05:51:45;;;;;;;105.78;62.17;;;2.80;99.90;;;;;;2107491;28;20085;-70
2023/01/26 05:52:46;;;;;;;103.63;58.10;;;2.80;99.90;;;;;;2107587;28;20051;-70
2023/01/26 05:53:47;;;;;;;111.72;61.72;;;2.80;99.90;;;;;;2107475;28;20031;-70
2023/01/26 05:54:47;;;;;;;106.93;57.05;;;2.80;99.90;;;;;;2109018;28;20028;-71
2023/01/26 05:55:49;;;;;;;103.57;56.65;;;2.80;99.90;;;;;;2108086;28;20115;-71
2023/01/26 05:56:52;;;;;;;104.63;56.95;;;2.80;99.90;;;;;;2106573;28;20514;-70
2023/01/26 05:57:52;;;;;;;103.55;56.50;;;2.80;99.90;;;;;;2106642;28;20024;-70
2023/01/26 05:58:53;;;;;;;103.32;56.80;;;2.80;99.90;;;;;;2107321;28;20068;-70
2023/01/26 05:59:54;;;;;;;102.68;56.58;;;2.80;99.90;;;;;;2107891;28;20035;-70
2023/01/26 06:00:54;;;;;;;107.63;58.67;;;2.80;99.90;;;;;;2109449;27;20812;-70
2023/01/26 06:01:56;;;;;;;107.93;58.72;;;2.80;99.90;;;;;;2112575;27;20406;-70